Time;durP1;ratioP1;P1;durP2;ratioP2;P2;SDS_P1;SDS_P2;PMS_P1;PMS_P2;Temp;Humidity;BMP_temperature;BMP_pressure;BME280_temperature;BME280_humidity;BME280_pressure;Samples;Min_cycle;Max_cycle;Signal;HPM_P1;HPM_P2
2023/05/27 00:01:33;;;;;;;9.85;3.60;;;9.30;99.90;;;;;;5025039;28;20096;-82
2023/05/27 00:03:59;;;;;;;11.60;3.22;;;9.30;99.90;;;;;;5011566;28;20033;-82
2023/05/27 00:06:24;;;;;;;13.52;3.70;;;9.20;99.90;;;;;;4988725;28;20087;-82
2023/05/27 00:08:50;;;;;;;15.95;3.63;;;9.20;99.90;;;;;;5004786;28;20110;-81
2023/05/27 00:11:16;;;;;;;10.27;3.65;;;9.20;99.90;;;;;;4988920;28;20041;-81
2023/05/27 00:13:42;;;;;;;10.35;4.03;;;9.20;99.90;;;;;;5005072;28;20052;-81
2023/05/27 00:16:08;;;;;;;9.27;3.53;;;9.10;99.90;;;;;;5004502;28;20071;-81
2023/05/27 00:18:35;;;;;;;16.05;3.95;;;9.10;99.90;;;;;;5004557;28;20468;-82
2023/05/27 00:21:01;;;;;;;9.65;3.78;;;9.10;99.90;;;;;;5005157;28;20041;-82
2023/05/27 00:23:27;;;;;;;13.02;3.88;;;9.10;99.90;;;;;;5020937;28;20048;-82
2023/05/27 00:25:52;;;;;;;16.13;3.63;;;9.00;99.90;;;;;;5004472;28;20044;-81
2023/05/27 00:28:18;;;;;;;14.52;3.90;;;8.90;99.90;;;;;;4988442;28;20404;-82
2023/05/27 00:30:44;;;;;;;10.65;3.33;;;8.90;99.90;;;;;;5020912;28;20179;-82
2023/05/27 00:33:09;;;;;;;14.40;4.07;;;8.90;99.90;;;;;;5004404;28;20040;-82
2023/05/27 00:35:35;;;;;;;12.65;4.15;;;8.90;99.90;;;;;;5004297;28;20098;-82
2023/05/27 00:38:01;;;;;;;9.18;4.18;;;8.90;99.90;;;;;;5019841;28;20040;-82
2023/05/27 00:40:30;;;;;;;14.02;3.85;;;8.90;99.90;;;;;;4987787;28;20037;-81
2023/05/27 00:42:56;;;;;;;15.70;3.78;;;8.90;99.90;;;;;;5020512;28;20053;-82
2023/05/27 00:45:21;;;;;;;10.77;3.70;;;8.90;99.90;;;;;;5003752;28;20497;-82
2023/05/27 00:47:47;;;;;;;11.35;3.40;;;8.90;99.90;;;;;;5020631;28;20076;-82
2023/05/27 00:50:14;;;;;;;13.35;3.83;;;9.00;99.90;;;;;;4987452;28;20036;-82
2023/05/27 00:52:40;;;;;;;11.88;3.90;;;8.90;99.90;;;;;;5004258;28;20040;-82
2023/05/27 00:55:07;;;;;;;11.07;3.42;;;8.90;99.90;;;;;;5019850;28;20481;-82
2023/05/27 00:57:33;;;;;;;8.48;3.40;;;8.90;99.90;;;;;;5036929;28;20397;-82
2023/05/27 00:59:58;;;;;;;11.20;3.45;;;8.90;99.90;;;;;;5020374;28;20032;-81
2023/05/27 01:02:25;;;;;;;10.70;3.70;;;9.00;99.90;;;;;;5003484;28;20485;-82
2023/05/27 01:04:51;;;;;;;9.88;3.65;;;8.90;99.90;;;;;;5020103;28;20493;-82
2023/05/27 01:07:38;;;;;;;11.95;4.00;;;8.80;99.90;;;;;;5003853;28;20040;-82
2023/05/27 01:10:22;;;;;;;12.02;4.15;;;8.80;99.90;;;;;;5019857;28;20056;-82
2023/05/27 01:13:25;;;;;;;11.27;3.70;;;8.80;99.90;;;;;;5036357;28;20041;-82
2023/05/27 01:15:54;;;;;;;9.80;3.85;;;8.70;99.90;;;;;;5025907;28;20105;-81
2023/05/27 01:18:22;;;;;;;8.60;3.20;;;8.60;99.90;;;;;;5028344;28;20045;-82
2023/05/27 01:20:53;;;;;;;11.43;3.80;;;8.60;99.90;;;;;;5036807;28;20127;-81
2023/05/27 01:23:18;;;;;;;15.43;3.83;;;8.50;99.90;;;;;;5019804;28;20044;-82
2023/05/27 01:25:44;;;;;;;11.65;3.50;;;8.40;99.90;;;;;;4987178;28;20037;-81
2023/05/27 01:28:10;;;;;;;10.48;4.07;;;8.40;99.90;;;;;;5019842;28;20045;-82
2023/05/27 01:30:36;;;;;;;11.10;3.80;;;8.40;99.90;;;;;;5003350;28;20162;-82
2023/05/27 01:33:12;;;;;;;12.00;4.20;;;8.30;99.90;;;;;;4987303;28;20049;-82
2023/05/27 01:35:52;;;;;;;11.60;4.20;;;8.30;99.90;;;;;;5036180;28;20037;-81
2023/05/27 01:38:20;;;;;;;11.60;4.65;;;8.20;99.90;;;;;;5019334;28;20094;-81
2023/05/27 01:40:47;;;;;;;9.18;3.88;;;8.20;99.90;;;;;;5035752;28;20044;-81
2023/05/27 01:43:15;;;;;;;13.52;4.30;;;8.20;99.90;;;;;;5019397;28;20049;-82
2023/05/27 01:45:42;;;;;;;11.70;3.78;;;8.20;99.90;;;;;;5035916;28;20044;-81
2023/05/27 01:48:09;;;;;;;14.10;3.75;;;8.20;99.90;;;;;;5036169;28;20052;-82
2023/05/27 01:50:35;;;;;;;11.48;3.67;;;8.20;99.90;;;;;;5019542;28;20138;-81
2023/05/27 01:53:03;;;;;;;11.45;3.75;;;8.10;99.90;;;;;;5003140;28;20048;-80
2023/05/27 01:55:30;;;;;;;12.27;4.03;;;8.10;99.90;;;;;;5035448;28;20052;-81
2023/05/27 01:57:56;;;;;;;9.98;3.20;;;8.10;99.90;;;;;;4987264;28;20055;-81
2023/05/27 02:00:22;;;;;;;11.30;3.83;;;8.10;99.90;;;;;;5002695;28;20037;-82
2023/05/27 02:02:48;;;;;;;12.45;3.88;;;8.20;99.90;;;;;;5003029;28;20065;-82
2023/05/27 02:05:13;;;;;;;12.55;3.60;;;8.10;99.90;;;;;;5018757;28;20488;-82
2023/05/27 02:07:39;;;;;;;12.07;3.97;;;8.10;99.90;;;;;;5002757;28;20036;-81
2023/05/27 02:10:06;;;;;;;11.82;3.70;;;8.30;99.90;;;;;;4986151;28;20405;-81
2023/05/27 02:12:31;;;;;;;12.68;4.18;;;8.10;99.90;;;;;;5002657;28;20433;-81
2023/05/27 02:14:57;;;;;;;13.43;4.45;;;8.10;99.90;;;;;;5002444;28;20095;-81
2023/05/27 02:17:24;;;;;;;11.43;4.32;;;8.00;99.90;;;;;;4986285;28;20041;-82
2023/05/27 02:19:50;;;;;;;12.68;5.05;;;8.00;99.90;;;;;;5002377;28;20078;-81
2023/05/27 02:22:16;;;;;;;14.52;4.78;;;7.90;99.90;;;;;;5018674;28;20036;-81
2023/05/27 02:24:42;;;;;;;12.15;4.88;;;8.10;99.90;;;;;;5002207;28;20045;-81
2023/05/27 02:27:08;;;;;;;14.13;4.82;;;8.10;99.90;;;;;;5018906;28;20037;-81
2023/05/27 02:29:34;;;;;;;12.38;4.97;;;7.80;99.90;;;;;;5008837;28;20041;-81
2023/05/27 02:31:59;;;;;;;15.25;5.18;;;7.80;99.90;;;;;;5031782;28;20170;-82
2023/05/27 02:34:25;;;;;;;15.10;4.93;;;7.80;99.90;;;;;;5037514;28;20039;-81
2023/05/27 02:36:51;;;;;;;12.40;4.30;;;7.70;99.90;;;;;;5002853;28;20040;-80
2023/05/27 02:39:17;;;;;;;10.82;5.20;;;7.70;99.90;;;;;;5018869;28;20037;-82
2023/05/27 02:41:43;;;;;;;13.38;4.60;;;7.60;99.90;;;;;;5002756;28;20041;-82
2023/05/27 02:44:08;;;;;;;9.85;4.15;;;7.70;99.90;;;;;;5019004;28;20131;-82
2023/05/27 02:46:34;;;;;;;11.50;4.30;;;7.70;99.90;;;;;;5002684;28;20040;-82
2023/05/27 02:49:00;;;;;;;14.38;4.78;;;7.70;99.90;;;;;;4986272;28;20040;-82
2023/05/27 02:51:27;;;;;;;14.63;5.03;;;7.70;99.90;;;;;;5002262;28;20509;-82
2023/05/27 02:53:59;;;;;;;15.15;4.45;;;7.60;99.90;;;;;;5035762;28;20543;-82
2023/05/27 02:56:26;;;;;;;15.70;4.97;;;7.70;99.90;;;;;;5018678;28;20049;-82
2023/05/27 02:58:52;;;;;;;13.93;4.38;;;7.70;99.90;;;;;;5019030;28;20444;-82
2023/05/27 03:01:18;;;;;;;12.15;4.32;;;7.50;99.90;;;;;;4988080;28;20043;-82
2023/05/27 03:03:44;;;;;;;9.93;4.13;;;7.50;99.90;;;;;;5039203;28;20500;-82
2023/05/27 03:06:10;;;;;;;13.20;4.47;;;7.70;99.90;;;;;;5022769;28;20120;-82
2023/05/27 03:08:36;;;;;;;16.05;4.30;;;7.60;99.90;;;;;;5006234;28;20048;-82
2023/05/27 03:11:01;;;;;;;15.50;5.20;;;7.50;99.90;;;;;;5005927;28;20036;-82
2023/05/27 03:13:27;;;;;;;11.77;4.30;;;7.40;99.90;;;;;;5021968;28;20037;-82
2023/05/27 03:15:54;;;;;;;11.20;4.45;;;7.40;99.90;;;;;;5005994;28;20041;-80
2023/05/27 03:18:20;;;;;;;10.63;4.38;;;7.40;99.90;;;;;;5021889;28;20224;-82
2023/05/27 03:20:47;;;;;;;14.68;4.40;;;8.80;99.90;;;;;;4989377;28;20037;-82
2023/05/27 03:23:13;;;;;;;15.70;4.65;;;7.40;99.90;;;;;;5038687;28;20036;-82
2023/05/27 03:25:39;;;;;;;13.57;4.53;;;7.40;99.90;;;;;;5005609;28;20073;-82
2023/05/27 03:28:05;;;;;;;11.02;4.47;;;7.40;99.90;;;;;;5005987;28;20400;-82
2023/05/27 03:30:31;;;;;;;11.50;4.50;;;7.40;99.90;;;;;;5005424;28;20048;-82
2023/05/27 03:32:56;;;;;;;14.60;4.35;;;7.50;99.90;;;;;;5005589;28;20036;-81
2023/05/27 03:35:22;;;;;;;9.93;4.57;;;7.40;99.90;;;;;;5021738;28;20040;-82
2023/05/27 03:37:48;;;;;;;11.50;4.75;;;7.40;99.90;;;;;;5005297;28;20052;-82
2023/05/27 03:40:13;;;;;;;9.55;4.07;;;7.40;99.90;;;;;;4989061;28;20076;-82
2023/05/27 03:42:39;;;;;;;11.93;4.60;;;7.40;99.90;;;;;;5021930;28;20033;-81
2023/05/27 03:45:06;;;;;;;10.73;4.55;;;7.40;99.90;;;;;;4999869;28;20049;-81
2023/05/27 03:47:34;;;;;;;14.10;4.90;;;7.40;99.90;;;;;;5033000;28;20049;-81
2023/05/27 03:50:00;;;;;;;14.25;5.00;;;7.50;99.90;;;;;;4989398;28;20040;-81
2023/05/27 03:52:25;;;;;;;10.75;4.82;;;7.50;99.90;;;;;;4988843;28;20041;-82
2023/05/27 03:54:51;;;;;;;13.27;4.50;;;8.00;99.90;;;;;;5005018;28;20397;-81
2023/05/27 03:57:17;;;;;;;10.90;4.57;;;7.40;99.90;;;;;;5021307;28;20045;-81
2023/05/27 03:59:42;;;;;;;16.73;5.15;;;7.70;99.90;;;;;;5021649;28;20048;-81
2023/05/27 04:02:08;;;;;;;12.30;4.53;;;7.40;99.90;;;;;;5021192;28;20495;-81
2023/05/27 04:04:34;;;;;;;12.93;4.95;;;8.10;99.90;;;;;;5005199;28;20037;-81
2023/05/27 04:07:00;;;;;;;9.88;4.03;;;7.40;99.90;;;;;;5021027;28;20072;-81
2023/05/27 04:09:26;;;;;;;9.15;3.72;;;7.40;99.90;;;;;;5021447;28;20045;-81
2023/05/27 04:11:52;;;;;;;15.10;5.07;;;7.40;99.90;;;;;;5004652;28;20094;-82
2023/05/27 04:14:18;;;;;;;13.38;4.60;;;8.00;99.90;;;;;;5003843;28;20401;-81
2023/05/27 04:16:43;;;;;;;12.63;4.47;;;7.40;99.90;;;;;;4988420;28;20044;-81
2023/05/27 04:19:09;;;;;;;13.23;5.22;;;7.50;99.90;;;;;;5020406;28;20037;-82
2023/05/27 04:21:36;;;;;;;12.90;5.00;;;7.50;99.90;;;;;;5020927;28;20040;-82
2023/05/27 04:24:05;;;;;;;19.45;4.70;;;7.50;99.90;;;;;;4988608;28;20088;-82
2023/05/27 04:26:32;;;;;;;12.52;4.68;;;7.60;99.90;;;;;;5020983;28;20520;-82
2023/05/27 04:29:01;;;;;;;12.73;4.43;;;7.60;99.90;;;;;;5021151;28;20048;-81
2023/05/27 04:31:28;;;;;;;12.48;4.30;;;7.70;99.90;;;;;;5037744;28;20423;-82
2023/05/27 04:33:55;;;;;;;10.90;4.13;;;7.90;99.90;;;;;;5004602;28;20063;-82
2023/05/27 04:36:24;;;;;;;10.40;4.30;;;7.80;99.90;;;;;;5020295;28;20083;-81
2023/05/27 04:38:51;;;;;;;15.13;6.15;;;7.80;99.90;;;;;;5021037;28;20041;-81
2023/05/27 04:41:16;;;;;;;16.48;4.40;;;8.00;99.90;;;;;;5004346;28;20037;-81
2023/05/27 04:43:42;;;;;;;10.45;3.97;;;7.90;99.90;;;;;;5020192;28;20512;-81
2023/05/27 04:46:08;;;;;;;12.27;4.30;;;7.90;99.90;;;;;;5003788;28;20124;-81
2023/05/27 04:48:35;;;;;;;14.00;4.55;;;7.90;99.90;;;;;;5036393;28;20048;-82
2023/05/27 04:51:01;;;;;;;12.88;4.85;;;7.90;99.90;;;;;;4988619;28;20393;-81
2023/05/27 04:53:26;;;;;;;14.15;4.32;;;8.00;99.90;;;;;;4988231;28;20045;-82
2023/05/27 04:55:52;;;;;;;16.48;4.30;;;8.00;99.90;;;;;;5003915;28;20040;-82
2023/05/27 04:58:18;;;;;;;10.73;4.25;;;8.20;99.90;;;;;;5041285;28;20041;-82
2023/05/27 05:00:49;;;;;;;14.10;4.50;;;8.10;99.90;;;;;;5037243;28;20037;-82
2023/05/27 05:03:26;;;;;;;12.10;4.13;;;8.20;99.90;;;;;;5006303;28;20111;-82
2023/05/27 05:05:52;;;;;;;15.43;4.18;;;8.20;99.90;;;;;;4988903;28;20033;-82
2023/05/27 05:08:21;;;;;;;12.20;3.70;;;8.20;99.90;;;;;;5036664;28;20087;-82
2023/05/27 05:10:48;;;;;;;18.55;4.47;;;8.20;99.90;;;;;;5003523;28;20493;-82
2023/05/27 05:13:15;;;;;;;13.00;3.78;;;8.30;99.90;;;;;;5019837;28;20047;-81
2023/05/27 05:15:43;;;;;;;11.57;3.88;;;8.30;99.90;;;;;;5019935;28;20040;-82
2023/05/27 05:18:10;;;;;;;20.08;4.38;;;8.30;99.90;;;;;;5019771;28;20045;-82
2023/05/27 05:20:36;;;;;;;17.30;4.90;;;8.40;99.90;;;;;;5003383;28;20040;-82
2023/05/27 05:23:01;;;;;;;18.20;4.75;;;8.40;99.90;;;;;;5003350;28;20044;-82
2023/05/27 05:25:29;;;;;;;13.05;3.80;;;8.50;99.90;;;;;;5002957;28;20033;-82
2023/05/27 05:27:55;;;;;;;14.43;4.63;;;8.50;99.90;;;;;;4987609;28;20130;-81
2023/05/27 05:30:21;;;;;;;18.17;4.70;;;8.50;99.90;;;;;;5003184;28;20040;-81
2023/05/27 05:32:46;;;;;;;13.38;4.25;;;8.60;99.90;;;;;;5004206;28;20389;-81
2023/05/27 05:35:12;;;;;;;15.13;4.35;;;8.70;99.90;;;;;;4987059;28;20095;-81
2023/05/27 05:37:38;;;;;;;12.77;3.85;;;8.70;99.90;;;;;;5003081;28;20040;-81
2023/05/27 05:40:04;;;;;;;15.60;4.32;;;8.70;99.90;;;;;;4987135;28;20037;-81
2023/05/27 05:42:30;;;;;;;13.20;5.03;;;8.80;99.90;;;;;;5035640;28;20123;-82
2023/05/27 05:44:55;;;;;;;11.75;3.63;;;8.80;99.90;;;;;;5019099;28;20137;-80
2023/05/27 05:47:21;;;;;;;13.13;4.25;;;8.90;99.90;;;;;;5003022;28;20277;-82
2023/05/27 05:49:47;;;;;;;15.07;4.68;;;9.00;99.90;;;;;;5002732;28;20033;-82
2023/05/27 05:52:12;;;;;;;15.77;4.30;;;9.10;99.90;;;;;;5002844;28;20041;-82
2023/05/27 05:54:38;;;;;;;19.42;4.32;;;9.10;99.90;;;;;;5019089;28;20043;-82
2023/05/27 05:57:05;;;;;;;13.88;4.40;;;9.30;99.90;;;;;;5019157;28;20044;-82
2023/05/27 05:59:31;;;;;;;14.02;3.97;;;9.30;99.90;;;;;;5018978;28;20048;-82
2023/05/27 06:01:57;;;;;;;15.10;4.45;;;9.40;99.90;;;;;;5035489;28;20033;-82
2023/05/27 06:04:23;;;;;;;15.77;4.93;;;9.50;99.90;;;;;;5018872;28;20113;-82
2023/05/27 06:06:48;;;;;;;9.80;3.97;;;9.70;99.90;;;;;;5019231;28;20586;-81
2023/05/27 06:09:14;;;;;;;15.13;4.22;;;9.70;99.90;;;;;;5002275;28;20504;-82
2023/05/27 06:11:40;;;;;;;15.07;4.30;;;9.80;99.90;;;;;;5018871;28;20045;-80
2023/05/27 06:14:07;;;;;;;14.55;4.35;;;9.90;99.90;;;;;;5037356;28;20044;-81
2023/05/27 06:16:35;;;;;;;16.40;4.43;;;10.00;99.90;;;;;;5006598;28;20044;-81
2023/05/27 06:19:01;;;;;;;11.75;4.07;;;10.10;99.90;;;;;;5023048;28;20493;-81
2023/05/27 06:21:27;;;;;;;16.17;4.40;;;10.20;99.90;;;;;;4986611;28;20033;-82
2023/05/27 06:23:52;;;;;;;16.73;4.95;;;10.30;99.90;;;;;;5035061;28;20037;-82
2023/05/27 06:26:18;;;;;;;15.68;4.13;;;10.50;99.90;;;;;;4986237;28;20037;-82
2023/05/27 06:28:44;;;;;;;19.20;4.88;;;10.50;99.90;;;;;;5018943;28;20068;-82
2023/05/27 06:31:09;;;;;;;16.30;4.85;;;10.70;99.90;;;;;;5002484;28;20044;-82
2023/05/27 06:33:35;;;;;;;12.57;4.40;;;10.80;99.90;;;;;;4986438;28;20452;-82
2023/05/27 06:36:01;;;;;;;20.98;4.85;;;11.00;99.90;;;;;;4985513;28;20083;-82
2023/05/27 06:38:26;;;;;;;17.67;4.28;;;11.10;99.90;;;;;;5002503;28;20037;-81
2023/05/27 06:40:52;;;;;;;17.55;4.25;;;11.20;99.90;;;;;;5002002;28;20540;-81
2023/05/27 06:43:18;;;;;;;12.55;3.67;;;11.40;99.90;;;;;;5018417;28;20103;-81
2023/05/27 06:45:44;;;;;;;16.30;4.07;;;11.60;99.90;;;;;;5001884;28;20045;-80
2023/05/27 06:48:09;;;;;;;14.93;3.88;;;11.80;99.90;;;;;;5002637;28;20201;-81
2023/05/27 06:50:35;;;;;;;13.73;3.47;;;12.00;99.90;;;;;;5018289;28;20056;-82
2023/05/27 06:53:01;;;;;;;15.15;3.70;;;12.30;99.90;;;;;;5002328;28;20045;-82
2023/05/27 06:55:26;;;;;;;18.15;4.18;;;12.40;99.90;;;;;;4986026;28;20037;-82
2023/05/27 06:57:52;;;;;;;13.73;3.35;;;12.60;99.90;;;;;;4999175;28;20049;-81
2023/05/27 07:00:18;;;;;;;13.90;4.03;;;12.80;99.90;;;;;;5018413;28;20481;-82
2023/05/27 07:02:44;;;;;;;15.02;4.20;;;12.90;99.90;;;;;;4985861;28;20037;-82
2023/05/27 07:05:10;;;;;;;18.20;4.40;;;13.20;99.90;;;;;;5002211;28;20064;-82
2023/05/27 07:07:36;;;;;;;16.70;3.60;;;13.30;99.90;;;;;;4986056;28;20401;-83
2023/05/27 07:10:01;;;;;;;14.40;3.80;;;13.50;99.90;;;;;;4986073;28;20048;-82
2023/05/27 07:12:27;;;;;;;16.42;4.82;;;13.70;99.90;;;;;;5034476;28;20505;-81
2023/05/27 07:14:53;;;;;;;15.90;3.58;;;13.80;99.90;;;;;;5018284;28;20048;-82
2023/05/27 07:17:18;;;;;;;14.68;3.90;;;13.90;99.90;;;;;;5026944;28;20087;-82
2023/05/27 07:19:44;;;;;;;13.20;4.10;;;14.10;99.90;;;;;;5012016;28;20393;-82
2023/05/27 07:22:10;;;;;;;15.15;4.38;;;14.30;99.90;;;;;;5033426;28;20076;-82
2023/05/27 07:24:35;;;;;;;13.85;3.75;;;14.50;99.90;;;;;;5001331;28;20123;-81
2023/05/27 07:27:01;;;;;;;12.88;3.65;;;14.70;99.90;;;;;;5001997;28;20035;-81
2023/05/27 07:29:27;;;;;;;19.75;4.50;;;14.70;99.90;;;;;;5021052;28;20045;-81
2023/05/27 07:31:53;;;;;;;18.58;4.07;;;14.90;99.90;;;;;;5018576;28;20148;-81
2023/05/27 07:34:20;;;;;;;16.23;3.95;;;15.20;99.90;;;;;;5034360;28;20041;-82
2023/05/27 07:36:46;;;;;;;17.73;4.80;;;15.30;99.90;;;;;;5018376;28;20460;-82
2023/05/27 07:39:12;;;;;;;16.65;4.07;;;15.50;99.90;;;;;;5018085;28;20045;-82
2023/05/27 07:41:37;;;;;;;16.35;4.53;;;15.70;99.90;;;;;;5034359;28;20041;-82
2023/05/27 07:44:03;;;;;;;13.90;3.90;;;16.00;99.90;;;;;;5001970;28;20057;-82
2023/05/27 07:46:30;;;;;;;14.20;4.38;;;16.20;99.90;;;;;;5002331;28;20382;-82
2023/05/27 07:48:55;;;;;;;12.93;3.58;;;16.30;99.90;;;;;;5004847;28;20040;-82
2023/05/27 07:51:21;;;;;;;14.80;3.58;;;16.50;99.90;;;;;;5005180;28;20087;-82
2023/05/27 07:53:48;;;;;;;19.35;4.28;;;16.60;99.90;;;;;;5004924;28;20379;-82
2023/05/27 07:56:14;;;;;;;17.45;4.13;;;16.70;99.90;;;;;;5021309;28;20080;-82
2023/05/27 07:58:40;;;;;;;15.05;3.90;;;16.80;99.90;;;;;;5004990;28;20179;-83
2023/05/27 08:01:05;;;;;;;17.80;3.70;;;16.90;99.90;;;;;;5004625;28;20098;-81
2023/05/27 08:03:31;;;;;;;15.82;4.07;;;17.00;99.90;;;;;;5005621;28;20037;-82
2023/05/27 08:05:57;;;;;;;15.30;4.07;;;17.10;99.90;;;;;;5004571;28;20504;-82
2023/05/27 08:08:22;;;;;;;14.50;4.30;;;17.10;99.90;;;;;;5004644;28;20045;-81
2023/05/27 08:10:48;;;;;;;16.15;4.55;;;17.10;99.90;;;;;;5004329;28;20045;-82
2023/05/27 08:13:13;;;;;;;14.10;4.13;;;17.20;99.90;;;;;;5020979;28;20052;-82
2023/05/27 08:15:39;;;;;;;19.50;4.40;;;17.30;99.90;;;;;;5021110;28;20045;-82
2023/05/27 08:18:05;;;;;;;14.68;4.22;;;17.40;99.90;;;;;;5020590;28;20044;-83
2023/05/27 08:20:31;;;;;;;15.13;4.32;;;17.50;99.90;;;;;;5003977;28;20040;-83
2023/05/27 08:22:56;;;;;;;12.05;3.72;;;17.50;99.90;;;;;;5020767;28;20056;-82
2023/05/27 08:25:22;;;;;;;12.65;3.75;;;17.60;99.90;;;;;;5004374;28;20094;-82
2023/05/27 08:28:01;;;;;;;13.63;4.35;;;17.70;99.90;;;;;;5020763;28;20432;-83
2023/05/27 08:30:29;;;;;;;13.85;4.35;;;17.80;99.90;;;;;;5005041;28;20072;-82
2023/05/27 08:32:56;;;;;;;14.95;4.18;;;17.80;99.90;;;;;;5004801;28;20041;-82
2023/05/27 08:35:21;;;;;;;15.23;4.38;;;17.90;99.90;;;;;;5004322;28;20045;-82
2023/05/27 08:37:47;;;;;;;15.73;3.83;;;17.90;99.90;;;;;;5004342;28;20048;-82
2023/05/27 08:40:15;;;;;;;20.58;5.10;;;18.10;99.90;;;;;;5020444;28;20094;-82
2023/05/27 08:42:42;;;;;;;18.35;3.90;;;18.20;99.90;;;;;;5025997;28;20041;-80
2023/05/27 08:45:09;;;;;;;19.65;4.00;;;18.30;99.90;;;;;;5023594;28;20064;-82
2023/05/27 08:47:35;;;;;;;11.73;4.32;;;18.30;99.90;;;;;;5020873;28;20063;-83
2023/05/27 08:50:01;;;;;;;11.45;4.63;;;18.30;99.90;;;;;;5020009;28;20238;-83
2023/05/27 08:52:28;;;;;;;13.02;4.10;;;18.30;99.90;;;;;;5020528;28;20033;-82
2023/05/27 08:54:58;;;;;;;18.27;4.85;;;18.40;99.90;;;;;;5037032;28;20060;-82
2023/05/27 08:57:35;;;;;;;17.33;4.25;;;18.50;99.90;;;;;;5036703;28;20127;-82
2023/05/27 09:00:01;;;;;;;12.68;4.70;;;18.50;99.90;;;;;;5019420;28;20146;-82
2023/05/27 09:02:28;;;;;;;16.63;4.05;;;18.60;99.90;;;;;;5003951;28;20094;-82
2023/05/27 09:04:53;;;;;;;13.30;3.90;;;18.70;99.90;;;;;;5019907;28;20041;-82
2023/05/27 09:07:22;;;;;;;19.05;4.43;;;18.70;99.90;;;;;;5019955;28;20040;-82
2023/05/27 09:09:58;;;;;;;13.98;4.40;;;18.80;99.90;;;;;;5003837;28;20041;-82
2023/05/27 09:12:25;;;;;;;17.73;4.90;;;18.90;99.90;;;;;;5003417;28;20477;-82
2023/05/27 09:14:51;;;;;;;13.65;4.78;;;19.00;99.90;;;;;;5003369;28;20037;-82
2023/05/27 09:17:18;;;;;;;15.70;4.50;;;18.90;99.90;;;;;;5036300;28;20477;-83
2023/05/27 09:19:46;;;;;;;16.40;4.90;;;18.90;99.90;;;;;;5019113;28;20400;-82
2023/05/27 09:22:26;;;;;;;17.63;4.88;;;19.00;99.90;;;;;;5003511;28;20449;-81
2023/05/27 09:24:56;;;;;;;16.17;4.38;;;19.00;99.90;;;;;;5019448;28;20033;-83
2023/05/27 09:27:29;;;;;;;16.15;4.47;;;19.10;99.90;;;;;;5019454;28;20485;-82
2023/05/27 09:29:56;;;;;;;13.30;4.35;;;19.20;99.90;;;;;;5019378;28;20043;-82
2023/05/27 09:32:31;;;;;;;16.35;5.60;;;19.30;99.90;;;;;;5035968;28;20114;-83
2023/05/27 09:34:57;;;;;;;17.92;5.15;;;19.20;99.90;;;;;;5019913;28;20080;-82
2023/05/27 09:37:32;;;;;;;15.77;4.43;;;19.20;99.90;;;;;;5003131;28;20455;-83
2023/05/27 09:40:18;;;;;;;16.40;4.93;;;19.30;99.90;;;;;;5035760;28;20102;-82
2023/05/27 09:42:48;;;;;;;18.15;5.43;;;19.30;99.90;;;;;;5002787;28;20037;-83
2023/05/27 09:45:14;;;;;;;15.90;4.72;;;19.30;99.90;;;;;;5003107;28;20053;-82
2023/05/27 09:47:44;;;;;;;14.32;5.45;;;19.30;99.90;;;;;;5018915;28;20043;-81
2023/05/27 09:50:11;;;;;;;14.38;4.65;;;19.20;99.90;;;;;;5018901;28;20396;-82
2023/05/27 09:52:41;;;;;;;19.25;4.65;;;19.10;99.90;;;;;;5019213;28;20054;-82
2023/05/27 09:55:09;;;;;;;13.18;4.55;;;19.00;99.90;;;;;;5019213;28;20549;-81
2023/05/27 09:57:36;;;;;;;18.88;4.57;;;19.00;99.90;;;;;;5042238;28;20040;-80
2023/05/27 10:00:22;;;;;;;19.73;4.78;;;19.00;99.90;;;;;;5011213;28;20037;-82
2023/05/27 10:02:48;;;;;;;16.83;4.88;;;19.00;99.90;;;;;;5035373;28;20044;-84
2023/05/27 10:05:16;;;;;;;11.98;4.47;;;18.90;99.90;;;;;;5002512;28;20060;-83
2023/05/27 10:07:45;;;;;;;14.93;4.63;;;19.00;99.90;;;;;;5019172;28;20045;-83
2023/05/27 10:10:18;;;;;;;19.00;5.22;;;19.00;99.90;;;;;;5018598;28;20122;-82
2023/05/27 10:12:45;;;;;;;16.42;4.85;;;19.00;99.90;;;;;;5002583;28;20094;-83
2023/05/27 10:15:26;;;;;;;15.70;5.38;;;19.00;99.90;;;;;;5035815;28;20448;-82
2023/05/27 10:18:00;;;;;;;14.93;4.30;;;18.90;99.40;;;;;;5018734;28;20187;-82
2023/05/27 10:20:33;;;;;;;15.07;5.13;;;18.80;99.10;;;;;;5018573;28;20032;-82
2023/05/27 10:23:14;;;;;;;16.30;5.10;;;18.70;98.70;;;;;;5018718;28;20037;-81
2023/05/27 10:25:47;;;;;;;14.40;5.40;;;18.60;98.30;;;;;;5018807;28;20085;-82
2023/05/27 10:28:24;;;;;;;11.93;4.32;;;18.60;98.90;;;;;;5018843;28;20607;-82
2023/05/27 10:30:50;;;;;;;24.70;6.80;;;18.60;98.90;;;;;;5002475;28;20165;-82
2023/05/27 10:33:15;;;;;;;14.88;5.45;;;18.60;98.60;;;;;;5018827;28;20669;-82
2023/05/27 10:35:42;;;;;;;14.35;5.20;;;18.60;98.60;;;;;;5002601;28;20052;-81
2023/05/27 10:38:18;;;;;;;18.30;4.85;;;18.50;98.40;;;;;;5002011;28;20127;-82
2023/05/27 10:40:47;;;;;;;19.73;5.07;;;18.50;98.40;;;;;;5018708;28;20033;-82
2023/05/27 10:43:19;;;;;;;14.48;4.90;;;18.50;98.50;;;;;;5018540;28;20041;-82
2023/05/27 10:45:46;;;;;;;16.88;5.05;;;18.40;98.70;;;;;;5018598;28;20083;-83
2023/05/27 10:48:19;;;;;;;18.98;4.95;;;18.50;98.60;;;;;;5018649;28;20048;-82
2023/05/27 10:50:52;;;;;;;11.63;4.60;;;18.50;98.40;;;;;;5002227;28;20511;-82
2023/05/27 10:53:21;;;;;;;16.92;5.18;;;18.50;98.20;;;;;;5002274;28;20052;-83
2023/05/27 10:55:50;;;;;;;14.90;4.75;;;18.60;98.00;;;;;;5035041;28;20485;-83
2023/05/27 10:58:20;;;;;;;16.73;5.60;;;18.60;97.60;;;;;;5018375;28;20041;-83
2023/05/27 11:00:50;;;;;;;12.10;4.60;;;18.60;97.50;;;;;;5034598;28;20037;-82
2023/05/27 11:03:28;;;;;;;15.45;5.03;;;18.60;97.80;;;;;;5018506;28;20071;-82
2023/05/27 11:06:01;;;;;;;17.73;4.70;;;18.70;97.90;;;;;;5018218;28;20037;-82
2023/05/27 11:08:27;;;;;;;17.38;5.20;;;18.70;98.00;;;;;;5018583;28;20371;-82
2023/05/27 11:11:00;;;;;;;13.52;4.50;;;18.70;98.00;;;;;;5018337;28;20493;-82
2023/05/27 11:13:31;;;;;;;14.68;5.05;;;18.70;97.90;;;;;;5042984;28;20040;-81
2023/05/27 11:15:56;;;;;;;14.93;4.78;;;18.70;98.10;;;;;;5036292;28;20056;-82
2023/05/27 11:18:22;;;;;;;15.13;4.70;;;18.80;98.10;;;;;;5001931;28;20053;-81
2023/05/27 11:20:48;;;;;;;16.10;5.25;;;18.80;98.10;;;;;;5018181;28;20041;-81
2023/05/27 11:23:13;;;;;;;13.30;4.65;;;18.80;97.60;;;;;;5021328;28;20037;-82
2023/05/27 11:25:45;;;;;;;15.07;4.90;;;18.90;97.60;;;;;;5022022;28;20049;-82
2023/05/27 11:28:18;;;;;;;15.68;4.28;;;18.90;97.50;;;;;;5005586;28;20132;-82
2023/05/27 11:30:43;;;;;;;14.57;4.93;;;19.00;97.90;;;;;;5021632;28;20051;-81
2023/05/27 11:33:10;;;;;;;17.23;5.13;;;19.10;98.10;;;;;;5021884;28;20127;-82
2023/05/27 11:35:35;;;;;;;15.10;4.80;;;19.20;97.50;;;;;;5005406;28;20067;-83
2023/05/27 11:38:04;;;;;;;14.25;5.25;;;19.30;97.90;;;;;;5005153;28;20485;-82
2023/05/27 11:40:37;;;;;;;16.58;4.78;;;19.30;97.90;;;;;;5005896;28;20087;-82
2023/05/27 11:43:02;;;;;;;17.67;5.20;;;19.50;98.50;;;;;;5021651;28;20047;-82
2023/05/27 11:45:28;;;;;;;18.85;5.28;;;19.60;99.00;;;;;;5005110;28;20497;-82
2023/05/27 11:47:55;;;;;;;15.70;4.97;;;19.90;99.40;;;;;;5021786;28;20106;-82
2023/05/27 11:50:21;;;;;;;12.45;4.97;;;20.00;99.20;;;;;;5021280;28;20041;-82
2023/05/27 11:52:52;;;;;;;15.88;5.00;;;20.10;98.30;;;;;;5021256;28;20041;-82
2023/05/27 11:55:18;;;;;;;11.80;4.95;;;20.10;97.40;;;;;;5021130;28;20044;-82
2023/05/27 11:57:44;;;;;;;16.60;4.60;;;20.20;96.00;;;;;;5021329;28;20098;-83
2023/05/27 12:00:10;;;;;;;15.15;4.32;;;20.10;95.50;;;;;;5004852;28;20519;-81
2023/05/27 12:02:36;;;;;;;13.48;5.30;;;20.20;95.70;;;;;;5021643;28;20068;-81
2023/05/27 12:05:02;;;;;;;13.48;4.97;;;20.20;95.60;;;;;;5021515;28;20141;-82
2023/05/27 12:07:28;;;;;;;15.73;4.75;;;20.30;95.00;;;;;;5021248;28;20041;-82
2023/05/27 12:09:54;;;;;;;14.57;5.05;;;20.20;94.90;;;;;;5004514;28;20037;-82
2023/05/27 12:12:20;;;;;;;13.18;4.55;;;20.30;94.40;;;;;;5004827;28;20037;-82
2023/05/27 12:14:46;;;;;;;11.60;4.78;;;20.20;94.00;;;;;;5004516;28;20044;-82
2023/05/27 12:17:11;;;;;;;12.57;4.40;;;20.20;93.70;;;;;;5004624;28;20033;-82
2023/05/27 12:19:37;;;;;;;10.68;4.20;;;20.20;93.60;;;;;;5020368;28;20075;-82
2023/05/27 12:22:03;;;;;;;9.90;4.30;;;20.20;93.70;;;;;;5020601;28;20112;-82
2023/05/27 12:24:28;;;;;;;14.80;4.40;;;20.40;94.00;;;;;;5004784;28;20036;-83
2023/05/27 12:26:54;;;;;;;15.75;5.22;;;20.60;94.60;;;;;;5004433;28;20427;-81
2023/05/27 12:29:24;;;;;;;18.25;5.30;;;20.70;94.20;;;;;;5013328;28;20041;-81
2023/05/27 12:31:50;;;;;;;9.73;4.45;;;20.90;93.90;;;;;;5021158;28;20037;-82
2023/05/27 12:34:16;;;;;;;12.23;4.47;;;21.20;93.50;;;;;;5020281;28;20045;-81
2023/05/27 12:36:42;;;;;;;15.57;5.35;;;21.40;93.40;;;;;;5021004;28;20523;-81
2023/05/27 12:39:07;;;;;;;13.65;4.70;;;21.60;92.40;;;;;;5004442;28;20045;-82
2023/05/27 12:41:33;;;;;;;15.00;4.85;;;21.80;93.00;;;;;;5020807;28;20397;-83
2023/05/27 12:43:59;;;;;;;12.45;4.32;;;22.00;93.30;;;;;;5004413;28;20073;-82